Aérodrome :
LOGIN :

S'inscrire | Disclaimer

   EN    FR    IT 

 










Légende :    VFR   VFR Marginal   IFR   IFR Intensif   IFR Très Intensif
Visi : 
Plafond : 
>= 8 km
>= 3000ft
5 à 8 km
1000 à 3000 ft
1500m à 5 km
500 à 1000 ft
800 à 1500m
200 à 500 ft
< 800m
< 200 ft
Symboles :   Orages  Brouillard  Fortes neiges  Fortes précipitations  Vent > 20 kt
SIGMETs :   Divers  Orages  Givrage  Turbulence  Onde Orograph.  Cendres Volcan.






- Altitude de l'aérodrome : 194 ft


EBCV - Chièvres

DERNIER METAR :
  • 041455Z AUTO 22015KT 9999 OVC023/// 20/15 Q1015 WHT

METARs EXPIRÉS :
  • 041425Z AUTO 23016KT 9999 OVC022/// 20/15 Q1015 WHT
  • 041404Z AUTO 22015KT 9999 OVC024/// 20/15 Q1015 WHT
  • 041355Z AUTO 22016KT 9999 OVC026/// 20/15 Q1015 BLU
  • 041325Z AUTO 22014KT 9999 OVC024/// 20/15 Q1015 WHT
  • 041255Z AUTO 21012KT 9999 OVC021/// 20/15 Q1015 WHT
  • 041225Z AUTO 21017KT 9999 OVC021/// 19/14 Q1015 WHT

TAF TAF EBCV
Valide du 04 à 13h jusqu'au 04 à 22h UTC


041211Z 0413/0422 22012KT 9999 BKN018
TEMPO 0413/0422 22015G30KT 7000 -RA -DZ OVC014
PROB30
TEMPO 0413/0420 22018G35KT 4500 -RADZ SCT010 OVC018 BY EBWM



MET'MAP, la Météo Aéronautique d'un coup d'oeil ! - Copyright ORBIFLY Décembre 2007 - Disclaimer

ORBIFLY MET'MAP TEAM :

Programmation & Développement : Alexandra Zaïnal
Sur une idée originale de : Baudouin d'Aumeries
Assistance à la programmation : Marc-Olivier Méhu
Soutien technique & logistique : Manuel Goepfert

Contact : metmap@orbifly.com




SOURCES & CREDITS :

   NOAA